createdAt,value
2018-10-11T00:03:20.317Z,99.90
2018-10-11T00:07:25.197Z,99.90
2018-10-11T00:11:29.548Z,99.90
2018-10-11T00:15:33.801Z,99.90
2018-10-11T00:19:38.073Z,99.90
2018-10-11T00:23:42.482Z,99.90
2018-10-11T00:27:46.836Z,99.90
2018-10-11T00:31:51.193Z,99.90
2018-10-11T00:35:55.442Z,99.90
2018-10-11T00:39:59.856Z,99.90
2018-10-11T00:44:04.454Z,99.90
2018-10-11T00:48:08.723Z,99.90
2018-10-11T00:52:13.625Z,99.90
2018-10-11T00:56:17.896Z,99.90
2018-10-11T01:00:22.438Z,99.90
2018-10-11T01:04:26.665Z,99.90
2018-10-11T01:08:31.060Z,99.90
2018-10-11T01:12:35.339Z,99.90
2018-10-11T01:16:39.795Z,99.90
2018-10-11T01:20:44.088Z,99.90
2018-10-11T01:24:48.692Z,99.90
2018-10-11T01:28:52.994Z,99.90
2018-10-11T01:32:57.442Z,99.90
2018-10-11T01:37:01.864Z,99.90
2018-10-11T01:41:06.240Z,99.90
2018-10-11T01:45:11.399Z,99.90
2018-10-11T01:49:15.674Z,99.90
2018-10-11T01:53:20.023Z,99.90
2018-10-11T01:57:24.271Z,99.90
2018-10-11T02:01:28.652Z,99.90
2018-10-11T02:05:32.877Z,99.90
2018-10-11T02:09:37.369Z,99.90
2018-10-11T02:13:41.779Z,99.90
2018-10-11T02:17:46.038Z,99.90
2018-10-11T02:21:50.369Z,99.90
2018-10-11T02:25:54.620Z,99.90
2018-10-11T02:29:58.965Z,99.90
2018-10-11T02:34:03.267Z,99.90
2018-10-11T02:38:07.547Z,99.90
2018-10-11T02:42:11.912Z,99.90
2018-10-11T02:46:16.192Z,99.90
2018-10-11T02:50:20.558Z,99.90
2018-10-11T02:54:24.901Z,99.90
2018-10-11T02:58:40.191Z,99.90
2018-10-11T03:02:45.514Z,99.90
2018-10-11T03:06:50.133Z,99.90
2018-10-11T03:10:54.547Z,99.90
2018-10-11T03:14:59.022Z,99.90
2018-10-11T03:19:03.384Z,99.90
2018-10-11T03:23:07.798Z,99.90
2018-10-11T03:27:12.068Z,99.90
2018-10-11T03:31:16.522Z,99.90
2018-10-11T03:35:20.908Z,99.90
2018-10-11T03:39:25.640Z,99.90
2018-10-11T03:43:29.933Z,99.90
2018-10-11T03:47:34.340Z,99.90
2018-10-11T03:51:38.685Z,99.90
2018-10-11T03:55:43.393Z,99.90
2018-10-11T03:59:47.642Z,99.90
2018-10-11T04:03:52.143Z,99.90
2018-10-11T04:07:56.434Z,99.90
2018-10-11T04:12:00.751Z,99.90
2018-10-11T04:16:04.976Z,99.90
2018-10-11T04:20:09.317Z,99.90
2018-10-11T04:24:13.512Z,99.90
2018-10-11T04:28:19.632Z,99.90
2018-10-11T04:32:23.921Z,99.90
2018-10-11T04:36:28.129Z,99.90
2018-10-11T04:40:32.352Z,99.90
2018-10-11T04:44:37.260Z,99.90
2018-10-11T04:48:41.812Z,99.90
2018-10-11T04:52:50.853Z,99.90
2018-10-11T04:56:56.674Z,99.90
2018-10-11T05:01:01.018Z,99.90
2018-10-11T05:05:05.367Z,99.90
2018-10-11T05:09:09.580Z,99.90
2018-10-11T05:13:14.148Z,99.90
2018-10-11T05:17:18.670Z,99.90
2018-10-11T05:21:22.935Z,99.90
2018-10-11T05:25:27.245Z,99.90
2018-10-11T05:29:31.596Z,99.90
2018-10-11T05:33:36.543Z,99.90
2018-10-11T05:37:41.045Z,99.90
2018-10-11T05:41:45.556Z,99.90
2018-10-11T05:45:54.087Z,99.90
2018-10-11T05:49:58.489Z,99.90
2018-10-11T05:54:03.779Z,99.90
2018-10-11T05:58:08.197Z,99.90
2018-10-11T06:02:12.828Z,99.90
2018-10-11T06:06:17.106Z,99.90
2018-10-11T06:10:21.738Z,99.90
2018-10-11T06:14:26.142Z,99.90
2018-10-11T06:18:30.758Z,99.90
2018-10-11T06:22:35.098Z,99.90
2018-10-11T06:26:39.429Z,99.90
2018-10-11T06:30:44.093Z,99.90
2018-10-11T06:34:48.460Z,99.90
2018-10-11T06:38:53.181Z,99.90
2018-10-11T06:42:57.579Z,99.90
2018-10-11T06:47:02.207Z,99.90
2018-10-11T06:51:06.597Z,99.90
2018-10-11T06:55:11.112Z,99.90
2018-10-11T06:59:15.381Z,99.90
2018-10-11T07:03:19.869Z,99.90
2018-10-11T07:07:24.240Z,99.90
2018-10-11T07:11:28.439Z,99.90
2018-10-11T07:15:32.704Z,99.90
2018-10-11T07:19:37.081Z,99.90
2018-10-11T07:23:41.327Z,99.90
2018-10-11T07:27:45.637Z,99.90
2018-10-11T07:31:49.823Z,99.90
2018-10-11T07:35:54.240Z,99.90
2018-10-11T07:39:58.738Z,99.90
2018-10-11T07:44:02.956Z,99.90
2018-10-11T07:48:07.336Z,99.90
2018-10-11T07:52:11.661Z,99.90
2018-10-11T07:56:15.949Z,99.90
2018-10-11T08:00:20.348Z,99.90
2018-10-11T08:04:24.762Z,98.60
2018-10-11T08:08:29.060Z,97.40
2018-10-11T08:12:33.503Z,97.90
2018-10-11T08:16:37.875Z,96.90
2018-10-11T08:20:42.257Z,96.90
2018-10-11T08:24:46.555Z,97.00
2018-10-11T08:28:50.924Z,95.00
2018-10-11T08:32:55.399Z,94.90
2018-10-11T08:37:00.263Z,94.80
2018-10-11T08:41:04.788Z,94.20
2018-10-11T08:45:09.243Z,93.10
2018-10-11T08:49:13.553Z,91.10
2018-10-11T08:53:18.025Z,90.30
2018-10-11T08:57:23.133Z,86.50
2018-10-11T09:01:27.482Z,85.50
2018-10-11T09:05:32.960Z,85.60
2018-10-11T09:09:37.515Z,84.40
2018-10-11T09:13:42.048Z,82.60
2018-10-11T09:17:46.269Z,80.40
2018-10-11T09:21:50.731Z,76.80
2018-10-11T09:25:55.013Z,74.30
2018-10-11T09:29:59.591Z,73.90
2018-10-11T09:34:03.779Z,68.70
2018-10-11T09:38:09.326Z,70.30
2018-10-11T09:42:14.011Z,71.10
2018-10-11T09:46:18.435Z,66.90
2018-10-11T09:50:22.768Z,62.60
2018-10-11T09:54:27.449Z,60.50
2018-10-11T09:58:31.995Z,59.90
2018-10-11T10:02:36.395Z,58.90
2018-10-11T10:06:40.692Z,56.90
2018-10-11T10:10:45.563Z,56.20
2018-10-11T10:14:50.506Z,58.30
2018-10-11T10:18:54.891Z,57.90
2018-10-11T10:22:59.430Z,58.00
2018-10-11T10:27:03.984Z,54.60
2018-10-11T10:31:08.222Z,53.80
2018-10-11T10:35:12.951Z,51.30
2018-10-11T10:39:17.534Z,51.70
2018-10-11T10:43:21.956Z,50.70
2018-10-11T10:47:26.578Z,43.70
2018-10-11T10:51:31.640Z,46.30
2018-10-11T10:55:36.141Z,40.30
2018-10-11T10:59:40.456Z,37.60
2018-10-11T11:03:45.123Z,36.70
2018-10-11T11:07:49.479Z,36.40
2018-10-11T11:11:54.399Z,37.40
2018-10-11T11:15:58.650Z,34.50
2018-10-11T11:20:03.308Z,34.70
2018-10-11T11:24:07.637Z,32.80
2018-10-11T11:28:11.933Z,31.90
2018-10-11T11:32:16.414Z,33.20
2018-10-11T11:36:21.151Z,30.30
2018-10-11T11:40:25.513Z,33.70
2018-10-11T11:44:30.311Z,31.60
2018-10-11T11:48:34.549Z,31.10
2018-10-11T11:52:39.184Z,32.20
2018-10-11T11:56:43.650Z,29.60
2018-10-11T12:00:49.201Z,30.00
2018-10-11T12:04:53.487Z,33.40
2018-10-11T12:08:57.720Z,33.10
2018-10-11T12:13:03.343Z,29.20
2018-10-11T12:17:07.648Z,31.20
2018-10-11T12:21:12.060Z,30.10
2018-10-11T12:25:16.458Z,29.80
2018-10-11T12:29:20.934Z,30.40
2018-10-11T12:33:25.381Z,27.40
2018-10-11T12:37:29.960Z,27.50
2018-10-11T12:41:34.649Z,28.30
2018-10-11T12:45:39.914Z,28.70
2018-10-11T12:49:47.450Z,29.00
2018-10-11T12:53:48.879Z,28.10
2018-10-11T12:57:53.500Z,29.10
2018-10-11T13:01:57.889Z,28.60
2018-10-11T13:06:02.184Z,27.80
2018-10-11T13:10:06.541Z,27.30
2018-10-11T13:14:10.759Z,28.30
2018-10-11T13:18:15.111Z,28.80
2018-10-11T13:22:19.357Z,28.20
2018-10-11T13:26:24.924Z,27.70
2018-10-11T13:30:29.316Z,29.70
2018-10-11T13:34:34.134Z,28.70
2018-10-11T13:38:38.374Z,27.40
2018-10-11T13:42:42.757Z,28.10
2018-10-11T13:46:47.167Z,29.90
2018-10-11T13:50:51.464Z,28.60
2018-10-11T13:54:55.912Z,29.60
2018-10-11T13:59:00.705Z,30.60
2018-10-11T14:03:04.624Z,30.10
2018-10-11T14:07:08.899Z,30.20
2018-10-11T14:11:13.568Z,30.00
2018-10-11T14:15:17.924Z,31.00
2018-10-11T14:19:22.271Z,31.00
2018-10-11T14:23:26.531Z,38.10
2018-10-11T14:27:30.860Z,40.40
2018-10-11T14:31:35.076Z,46.10
2018-10-11T14:35:39.388Z,48.80
2018-10-11T14:39:43.620Z,50.20
2018-10-11T14:43:47.957Z,53.30
2018-10-11T14:47:52.305Z,55.50
2018-10-11T14:51:57.097Z,57.40
2018-10-11T14:56:01.410Z,57.70
2018-10-11T15:00:05.744Z,59.10
2018-10-11T15:04:10.085Z,59.90
2018-10-11T15:08:14.469Z,63.70
2018-10-11T15:12:18.928Z,65.20
2018-10-11T15:16:23.155Z,66.00
2018-10-11T15:20:27.415Z,67.70
2018-10-11T15:24:31.629Z,69.10
2018-10-11T15:28:36.918Z,70.00
2018-10-11T15:32:42.121Z,70.30
2018-10-11T15:36:46.574Z,70.20
2018-10-11T15:40:50.824Z,72.80
2018-10-11T15:45:03.605Z,73.30
2018-10-11T15:49:13.919Z,75.70
2018-10-11T15:53:24.781Z,77.50
2018-10-11T15:57:35.738Z,79.70
2018-10-11T16:01:40.267Z,82.30
2018-10-11T16:05:45.057Z,82.20
2018-10-11T16:09:49.468Z,83.90
2018-10-11T16:13:54.047Z,84.90
2018-10-11T16:17:58.361Z,86.30
2018-10-11T16:22:02.874Z,87.10
2018-10-11T16:26:07.315Z,88.70
2018-10-11T16:30:11.684Z,89.10
2018-10-11T16:34:15.881Z,89.90
2018-10-11T16:38:20.265Z,90.30
2018-10-11T16:42:24.526Z,90.80
2018-10-11T16:46:28.906Z,91.70
2018-10-11T16:50:33.264Z,92.30
2018-10-11T16:54:42.472Z,92.50
2018-10-11T16:58:46.753Z,93.10
2018-10-11T17:02:50.933Z,93.30
2018-10-11T17:06:55.314Z,93.80
2018-10-11T17:10:59.594Z,94.20
2018-10-11T17:15:05.183Z,95.00
2018-10-11T17:19:09.410Z,95.70
2018-10-11T17:23:14.796Z,96.30
2018-10-11T17:27:19.160Z,96.50
2018-10-11T17:31:23.480Z,97.20
2018-10-11T17:35:29.720Z,97.60
2018-10-11T17:39:34.082Z,98.00
2018-10-11T17:43:38.435Z,98.70
2018-10-11T17:47:42.855Z,99.30
2018-10-11T17:51:47.378Z,99.60
2018-10-11T17:55:51.624Z,99.90
2018-10-11T17:59:55.896Z,99.90
2018-10-11T18:04:00.420Z,99.90
2018-10-11T18:08:04.880Z,99.90
2018-10-11T18:12:09.306Z,99.90
2018-10-11T18:16:13.898Z,99.90
2018-10-11T18:20:18.564Z,99.90
2018-10-11T18:24:23.069Z,99.90
2018-10-11T18:28:27.614Z,99.90
2018-10-11T18:32:32.079Z,99.90
2018-10-11T18:36:36.578Z,99.90
2018-10-11T18:40:41.062Z,99.90
2018-10-11T18:44:46.022Z,99.90
2018-10-11T18:48:50.819Z,99.90
2018-10-11T18:52:56.099Z,99.90
2018-10-11T18:57:01.531Z,99.90
2018-10-11T19:01:06.120Z,99.90
2018-10-11T19:05:10.530Z,99.90
2018-10-11T19:09:15.219Z,99.90
2018-10-11T19:13:19.634Z,99.90
2018-10-11T19:17:31.929Z,99.90
2018-10-11T19:21:36.701Z,99.90
2018-10-11T19:25:41.268Z,99.90
2018-10-11T19:29:46.016Z,99.90
2018-10-11T19:33:51.205Z,99.90
2018-10-11T19:37:56.162Z,99.90
2018-10-11T19:42:00.825Z,99.90
2018-10-11T19:46:05.579Z,99.90
2018-10-11T19:50:10.508Z,99.90
2018-10-11T19:54:15.455Z,99.90
2018-10-11T19:58:20.495Z,99.90
2018-10-11T20:02:24.902Z,99.90
2018-10-11T20:06:29.181Z,99.90
2018-10-11T20:10:33.788Z,99.90
2018-10-11T20:14:38.355Z,99.90
2018-10-11T20:18:43.163Z,99.90
2018-10-11T20:22:47.840Z,99.90
2018-10-11T20:26:52.517Z,99.90
2018-10-11T20:30:57.002Z,99.90
2018-10-11T20:35:01.451Z,99.90
2018-10-11T20:39:07.468Z,99.90
2018-10-11T20:43:12.119Z,99.90
2018-10-11T20:47:16.705Z,99.90
2018-10-11T20:51:21.538Z,99.90
2018-10-11T20:55:26.078Z,99.90
2018-10-11T20:59:30.857Z,99.90
2018-10-11T21:03:35.789Z,99.90
2018-10-11T21:07:40.294Z,99.90
2018-10-11T21:11:44.905Z,99.90
2018-10-11T21:15:49.524Z,99.90
2018-10-11T21:19:54.281Z,99.90
2018-10-11T21:23:58.702Z,99.90
2018-10-11T21:28:05.487Z,99.90
2018-10-11T21:32:10.152Z,99.90
2018-10-11T21:36:15.029Z,99.90
2018-10-11T21:40:19.947Z,99.90
2018-10-11T21:44:24.521Z,99.90
2018-10-11T21:48:30.325Z,99.90
2018-10-11T21:52:34.888Z,99.90
2018-10-11T21:56:39.653Z,99.90
2018-10-11T22:00:49.669Z,99.90
2018-10-11T22:04:54.144Z,99.90
2018-10-11T22:08:59.130Z,99.90
2018-10-11T22:13:03.768Z,99.90
2018-10-11T22:17:08.533Z,99.90
2018-10-11T22:21:13.268Z,99.90
2018-10-11T22:25:18.038Z,99.90
2018-10-11T22:29:22.740Z,99.90
2018-10-11T22:33:27.555Z,99.90
2018-10-11T22:37:32.191Z,99.90
2018-10-11T22:41:36.710Z,99.90
2018-10-11T22:45:41.477Z,99.90
2018-10-11T22:49:46.041Z,99.90
2018-10-11T22:53:50.801Z,99.90
2018-10-11T22:57:55.957Z,99.90
2018-10-11T23:02:00.722Z,99.90
2018-10-11T23:06:05.329Z,99.90
2018-10-11T23:10:09.967Z,99.90
2018-10-11T23:14:14.537Z,99.90
2018-10-11T23:18:19.349Z,99.90
2018-10-11T23:22:23.891Z,99.90
2018-10-11T23:26:28.463Z,99.90
2018-10-11T23:30:33.155Z,99.90
2018-10-11T23:34:37.817Z,99.90
2018-10-11T23:38:42.097Z,99.90
2018-10-11T23:42:46.546Z,99.90
2018-10-11T23:46:50.740Z,99.90
2018-10-11T23:50:55.069Z,99.90
2018-10-11T23:54:59.944Z,99.90
2018-10-11T23:59:04.713Z,99.90
